Monday, February 18, 2019, 5:18 AM EST
Back to Local

KPSF, Pittsfield Municipal Airport

Location: Pittsfield, MA, United States Lat: 42.433
Local Time: 5:18 AM EST (10:18 GMT) Lon: -73.283
Time Zone: US/Eastern Elev: 1194 ft

Show me the last for .
Show Decoded

2019-02-18 05:07 METAR KPSF 181007Z AUTO 00000KT 1SM -SN BR BKN013 OVC035 M03/M05 A2976 RMK AO2
                 P0001 T10331050 =
2019-02-18 04:54 METAR KPSF 180954Z AUTO 04004KT 1 3/4SM -SN BR FEW004 BKN017 OVC037 M03/M06
                 A2977 RMK AO2 SNE04B46 SLP093 P0000 T10331056 =
2019-02-18 04:51 METAR KPSF 180951Z AUTO 04004KT 2 1/2SM -SN BR FEW004 BKN019 OVC044 M03/M06
                 A2977 RMK AO2 SNE04B46 P0000 =
2019-02-18 04:35 METAR KPSF 180935Z AUTO 04003KT 4SM BR SCT007 OVC038 M03/M06 A2978 RMK AO2 SNE04
                 P0000 T10331056 =
2019-02-18 04:02 METAR KPSF 180902Z AUTO 05003KT 5SM -SN BR BKN007 BKN014 OVC041 M03/M06 A2978
                 RMK AO2 PRESFR P0000 T10331056 =
2019-02-18 03:54 METAR KPSF 180854Z AUTO 00000KT 3SM -SN BR SCT007 BKN025 OVC041 M03/M05 A2981
                 RMK AO2 SLP105 P0001 60005 T10331050 58018 =
2019-02-18 03:47 METAR KPSF 180847Z AUTO 04003KT 2 1/2SM -SN BR FEW007 BKN025 OVC041 M03/M06
                 A2980 RMK AO2 P0001 T10331056 =
2019-02-18 03:11 METAR KPSF 180811Z AUTO 00000KT 2SM -SN BR BKN029 OVC046 M03/M06 A2981 RMK AO2
                 P0001 T10331056 =
2019-02-18 03:01 METAR KPSF 180801Z AUTO VRB03KT 3SM -SN BR BKN031 OVC046 M03/M06 A2981 RMK AO2
                 P0000 T10331056 =
2019-02-18 02:54 METAR KPSF 180754Z AUTO 00000KT 2SM -SN BR BKN029 OVC046 M03/M06 A2983 RMK AO2
                 SLP112 P0001 T10331056 =
2019-02-18 02:34 METAR KPSF 180734Z AUTO 09004KT 2SM -SN BR OVC023 M03/M06 A2984 RMK AO2 P0001
                 T10331056 =
2019-02-18 02:26 METAR KPSF 180726Z AUTO 12005KT 1 3/4SM -SN BR OVC017 M03/M06 A2985 RMK AO2
                 P0001 T10331056 =
2019-02-18 02:00 METAR KPSF 180700Z AUTO 00000KT 2SM -SN BR OVC015 M03/M06 A2986 RMK AO2 P0001
                 T10331056 =
2019-02-18 01:54 METAR KPSF 180654Z AUTO 00000KT 1 1/2SM -SN BR OVC011 M03/M05 A2986 RMK AO2
                 SLP123 P0003 T10331050 =
2019-02-18 01:49 METAR KPSF 180649Z AUTO 00000KT 1 1/4SM -SN BR OVC009 M03/M05 A2986 RMK AO2
                 P0003 =
2019-02-18 01:31 METAR KPSF 180631Z AUTO 00000KT 3/4SM -SN BR VV009 M03/M06 A2985 RMK AO2 P0002
                 T10331056 =
2019-02-18 01:23 METAR KPSF 180623Z AUTO 00000KT 1SM -SN BR VV011 M03/M06 A2986 RMK AO2 P0002
                 T10331056 =
2019-02-18 01:03 METAR KPSF 180603Z AUTO 00000KT 1 1/4SM -SN BR OVC015 M03/M05 A2987 RMK AO2
                 P0000 T10331050 =
2019-02-18 00:54 METAR KPSF 180554Z AUTO 00000KT 2SM -SN BR OVC015 M03/M06 A2988 RMK AO2 SLP131
                 P0004 60014 T10331056 11017 21033 58013 =
2019-02-18 00:29 METAR KPSF 180529Z AUTO 05003KT 1SM -SN BR VV008 M03/M06 A2988 RMK AO2 P0003
                 T10331056 =
2019-02-18 00:17 METAR KPSF 180517Z AUTO 06003KT 3/4SM -SN BR VV006 M03/M06 A2989 RMK AO2 P0002
                 T10331056 =
2019-02-18 00:05 METAR KPSF 180505Z AUTO 00000KT 1/2SM SN FZFG VV003 M03/M06 A2990 RMK AO2 P0002
                 T10331056 =
2019-02-17 23:54 METAR KPSF 180454Z AUTO 00000KT 1/4SM SN FZFG VV003 M03/M06 A2990 RMK AO2 SLP139
                 P0008 T10331056 400001100 =
2019-02-17 23:46 METAR KPSF 180446Z AUTO 00000KT 1/4SM SN FZFG VV004 M03/M06 A2990 RMK AO2 P0007
                 T10331056 =
2019-02-17 23:26 METAR KPSF 180426Z AUTO 00000KT 3/4SM -SN BR VV009 M03/M06 A2991 RMK AO2 P0003
                 T10331056 =
2019-02-17 22:54 METAR KPSF 180354Z AUTO 11004KT 1 1/4SM -SN OVC014 M03/M06 A2991 RMK AO2 SNB02
                 SLP142 P0002 T10331061 =
2019-02-17 22:35 METAR KPSF 180335Z AUTO 15003KT 1 1/2SM -SN OVC014 M03/M06 A2992 RMK AO2 SNB02
                 P0001 T10331061 =
2019-02-17 22:17 METAR KPSF 180317Z AUTO 18006KT 1 1/4SM -SN OVC025 M03/M07 A2992 RMK AO2 SNB02
                 P0000 T10331067 =
2019-02-17 22:10 METAR KPSF 180310Z AUTO 18006KT 1 3/4SM -SN OVC031 M03/M08 A2992 RMK AO2 SNB02
                 P0000 T10281078 =
2019-02-17 21:54 METAR KPSF 180254Z AUTO 00000KT 10SM OVC050 M02/M09 A2992 RMK AO2 SLP147
                 T10221094 56012 =
2019-02-17 20:54 METAR KPSF 180154Z AUTO 00000KT 10SM OVC070 M02/M10 A2993 RMK AO2 SLP152
                 T10171100 =
2019-02-17 19:54 METAR KPSF 180054Z AUTO 00000KT 10SM SCT080 OVC095 M02/M09 A2993 RMK AO2 SLP154
                 T10221094 =
2019-02-17 18:54 METAR KPSF 172354Z AUTO 00000KT 10SM OVC100 M02/M11 A2996 RMK AO2 SLP163
                 T10171111 10000 21028 53001 =
2019-02-17 17:54 METAR KPSF 172254Z AUTO 23003KT 10SM SCT110 M02/M11 A2995 RMK AO2 SLP163
                 T10221111 =
2019-02-17 16:54 METAR KPSF 172154Z AUTO 00000KT 10SM CLR M01/M13 A2995 RMK AO2 SLP160 T10061128
                 =
2019-02-17 15:54 METAR KPSF 172054Z AUTO 00000KT 10SM CLR 00/M12 A2995 RMK AO2 SLP160 T00001122
                 58023 =
2019-02-17 14:54 METAR KPSF 171954Z AUTO 00000KT 10SM CLR M01/M12 A2999 RMK AO2 SLP173 T10061117
                 =
2019-02-17 13:54 METAR KPSF 171854Z AUTO 26007KT 10SM CLR M01/M11 A3003 RMK AO2 SLP187 T10111111
                 =
2019-02-17 12:54 METAR KPSF 171754Z AUTO 26009KT 10SM CLR M01/M13 A3003 RMK AO2 PRESRR SLP185
                 T10111128 11011 21100 55016 =
2019-02-17 11:54 METAR KPSF 171654Z AUTO 29003KT 10SM CLR M02/M13 A3002 RMK AO2 SLP184 T10171128
                 =
2019-02-17 10:54 METAR KPSF 171554Z AUTO VRB04KT 10SM CLR M04/M13 A3005 RMK AO2 SLP194 T10391133
                 =
2019-02-17 09:54 METAR KPSF 171454Z AUTO 31008KT 10SM CLR M04/M13 A3007 RMK AO2 SLP202 T10441133
                 51014 =
2019-02-17 08:54 METAR KPSF 171354Z AUTO 00000KT 10SM CLR M06/M13 A3007 RMK AO2 SLP203 T10611128
                 =
2019-02-17 07:54 METAR KPSF 171254Z AUTO 25005KT 10SM CLR M08/M13 A3006 RMK AO2 SLP200 T10831133
                 =
2019-02-17 06:54 METAR KPSF 171154Z AUTO 23005KT 10SM CLR M10/M14 A3003 RMK AO2 SLP191 T11001139
                 11078 21100 51013 =
2019-02-17 05:54 METAR KPSF 171054Z AUTO 27003KT 10SM CLR M09/M14 A3001 RMK AO2 SLP184 T10891139
                 =

Support USWX by starting your Amazon purchase here.